createdAt,value
2018-02-16T00:00:14.048Z,92.40
2018-02-16T00:00:46.470Z,92.70
2018-02-16T00:01:18.079Z,92.40
2018-02-16T00:01:49.701Z,91.90
2018-02-16T00:02:21.329Z,92.50
2018-02-16T00:02:52.987Z,92.50
2018-02-16T00:03:24.621Z,92.40
2018-02-16T00:03:56.318Z,91.50
2018-02-16T00:04:27.949Z,91.60
2018-02-16T00:04:59.565Z,91.90
2018-02-16T00:05:31.211Z,91.70
2018-02-16T00:06:02.839Z,91.70
2018-02-16T00:06:34.487Z,89.60
2018-02-16T00:07:06.133Z,90.10
2018-02-16T00:07:37.752Z,90.60
2018-02-16T00:08:09.377Z,89.60
2018-02-16T00:08:41.009Z,89.40
2018-02-16T00:09:12.628Z,89.80
2018-02-16T00:09:44.243Z,88.90
2018-02-16T00:10:15.867Z,89.60
2018-02-16T00:10:47.513Z,89.50
2018-02-16T00:11:19.151Z,89.40
2018-02-16T00:11:50.775Z,89.20
2018-02-16T00:12:22.391Z,89.60
2018-02-16T00:12:54.003Z,88.50
2018-02-16T00:13:25.651Z,88.90
2018-02-16T00:13:57.289Z,87.90
2018-02-16T00:14:28.921Z,87.80
2018-02-16T00:15:00.547Z,88.30
2018-02-16T00:15:32.176Z,87.30
2018-02-16T00:16:03.837Z,86.60
2018-02-16T00:16:35.443Z,86.20
2018-02-16T00:17:07.039Z,86.10
2018-02-16T00:17:38.677Z,85.50
2018-02-16T00:18:10.295Z,85.10
2018-02-16T00:18:41.909Z,86.30
2018-02-16T00:19:13.516Z,84.30
2018-02-16T00:19:45.139Z,84.00
2018-02-16T00:20:16.777Z,83.90
2018-02-16T00:20:48.413Z,84.40
2018-02-16T00:21:20.050Z,84.70
2018-02-16T00:21:51.663Z,84.60
2018-02-16T00:22:23.263Z,83.10
2018-02-16T00:22:54.901Z,82.10
2018-02-16T00:23:26.507Z,82.60
2018-02-16T00:23:58.145Z,81.80
2018-02-16T00:24:29.755Z,81.80
2018-02-16T00:25:01.381Z,80.90
2018-02-16T00:25:32.999Z,80.50
2018-02-16T00:26:04.619Z,82.50
2018-02-16T00:26:36.270Z,78.60
2018-02-16T00:27:07.913Z,77.50
2018-02-16T00:27:39.528Z,76.30
2018-02-16T00:28:11.125Z,79.00
2018-02-16T00:28:42.747Z,79.70
2018-02-16T00:29:14.369Z,79.20
2018-02-16T00:29:45.979Z,78.30
2018-02-16T00:30:17.591Z,79.10
2018-02-16T00:30:49.209Z,79.20
2018-02-16T00:31:20.827Z,78.90
2018-02-16T00:31:52.439Z,79.20
2018-02-16T00:32:24.071Z,80.40
2018-02-16T00:32:55.681Z,80.80
2018-02-16T00:33:27.283Z,80.30
2018-02-16T00:33:58.920Z,81.20
2018-02-16T00:34:30.545Z,80.10
2018-02-16T00:35:02.181Z,79.80
2018-02-16T00:35:33.801Z,81.20
2018-02-16T00:36:05.433Z,80.70
2018-02-16T00:36:37.083Z,81.80
2018-02-16T00:37:08.709Z,82.00
2018-02-16T00:37:40.321Z,82.20
2018-02-16T00:38:11.935Z,81.70
2018-02-16T00:38:43.543Z,81.60
2018-02-16T00:39:15.147Z,82.60
2018-02-16T00:39:46.788Z,82.00
2018-02-16T00:40:18.410Z,82.00
2018-02-16T00:40:50.038Z,83.20
2018-02-16T00:41:21.652Z,83.30
2018-02-16T00:41:53.269Z,82.80
2018-02-16T00:42:24.898Z,82.40
2018-02-16T00:42:56.497Z,83.30
2018-02-16T00:43:28.113Z,83.80
2018-02-16T00:43:59.736Z,83.80
2018-02-16T00:44:31.363Z,82.40
2018-02-16T00:45:02.987Z,82.50
2018-02-16T00:45:34.605Z,82.90
2018-02-16T00:46:06.229Z,81.80
2018-02-16T00:46:37.849Z,82.80
2018-02-16T00:47:09.448Z,83.10
2018-02-16T00:47:41.065Z,82.90
2018-02-16T00:48:12.717Z,81.90
2018-02-16T00:48:44.330Z,82.80
2018-02-16T00:49:15.935Z,82.50
2018-02-16T00:49:47.575Z,83.00
2018-02-16T00:50:19.219Z,82.50
2018-02-16T00:50:50.833Z,83.10
2018-02-16T00:51:22.453Z,83.10
2018-02-16T00:51:54.067Z,82.50
2018-02-16T00:52:25.663Z,83.30
2018-02-16T00:52:57.303Z,83.50
2018-02-16T00:53:28.929Z,83.40
2018-02-16T00:54:00.564Z,84.00
2018-02-16T00:54:32.183Z,83.30
2018-02-16T00:55:03.797Z,84.10
2018-02-16T00:55:35.441Z,84.10
2018-02-16T00:56:07.057Z,84.50
2018-02-16T00:56:38.673Z,84.10
2018-02-16T00:57:10.279Z,83.20
2018-02-16T00:57:41.917Z,83.60
2018-02-16T00:58:13.519Z,83.80
2018-02-16T00:58:45.131Z,84.00
2018-02-16T00:59:16.743Z,84.10
2018-02-16T00:59:48.410Z,84.40
2018-02-16T01:00:19.985Z,84.70
2018-02-16T01:00:51.597Z,83.90
2018-02-16T01:01:23.239Z,83.80
2018-02-16T01:01:54.847Z,82.60
2018-02-16T01:02:26.447Z,83.40
2018-02-16T01:02:58.065Z,83.40
2018-02-16T01:03:29.706Z,84.30
2018-02-16T01:04:01.310Z,83.80
2018-02-16T01:04:32.927Z,83.50
2018-02-16T01:05:04.553Z,84.50
2018-02-16T01:05:36.229Z,83.80
2018-02-16T01:06:07.871Z,83.70
2018-02-16T01:06:39.517Z,83.90
2018-02-16T01:07:11.119Z,84.40
2018-02-16T01:07:42.733Z,84.40
2018-02-16T01:08:14.331Z,84.50
2018-02-16T01:08:45.961Z,83.90
2018-02-16T01:09:17.575Z,84.40
2018-02-16T01:09:49.209Z,84.70
2018-02-16T01:10:20.825Z,85.00
2018-02-16T01:10:52.457Z,84.70
2018-02-16T01:11:24.091Z,84.30
2018-02-16T01:11:55.729Z,84.90
2018-02-16T01:12:27.353Z,84.60
2018-02-16T01:12:58.965Z,84.20
2018-02-16T01:13:30.566Z,83.80
2018-02-16T01:14:02.201Z,83.70
2018-02-16T01:14:33.808Z,84.10
2018-02-16T01:15:05.421Z,83.50
2018-02-16T01:15:37.037Z,83.40
2018-02-16T01:16:08.661Z,83.40
2018-02-16T01:16:40.297Z,83.20
2018-02-16T01:17:11.907Z,83.10
2018-02-16T01:17:43.527Z,84.10
2018-02-16T01:18:15.151Z,83.40
2018-02-16T01:18:46.756Z,81.30
2018-02-16T01:19:18.355Z,81.50
2018-02-16T01:19:49.959Z,82.30
2018-02-16T01:20:21.601Z,82.50
2018-02-16T01:20:53.211Z,82.00
2018-02-16T01:21:24.829Z,82.70
2018-02-16T01:21:56.451Z,82.90
2018-02-16T01:22:28.065Z,82.30
2018-02-16T01:22:59.701Z,81.90
2018-02-16T01:23:31.296Z,81.50
2018-02-16T01:24:02.937Z,82.40
2018-02-16T01:24:34.545Z,82.40
2018-02-16T01:25:06.156Z,81.90
2018-02-16T01:25:37.755Z,82.80
2018-02-16T01:26:09.372Z,82.50
2018-02-16T01:26:40.995Z,81.80
2018-02-16T01:27:12.611Z,81.90
2018-02-16T01:27:44.225Z,81.90
2018-02-16T01:28:15.863Z,82.50
2018-02-16T01:28:47.515Z,83.10
2018-02-16T01:29:19.119Z,82.80
2018-02-16T01:29:50.750Z,81.60
2018-02-16T01:30:22.353Z,81.40
2018-02-16T01:30:53.995Z,82.20
2018-02-16T01:31:25.607Z,82.40
2018-02-16T01:31:57.245Z,82.20
2018-02-16T01:32:28.875Z,82.10
2018-02-16T01:33:00.475Z,82.40
2018-02-16T01:33:32.096Z,82.70
2018-02-16T01:34:03.713Z,82.60
2018-02-16T01:34:35.331Z,82.70
2018-02-16T01:35:06.949Z,82.70
2018-02-16T01:35:38.575Z,81.30
2018-02-16T01:36:10.208Z,81.70
2018-02-16T01:36:41.827Z,82.10
2018-02-16T01:37:13.469Z,82.80
2018-02-16T01:37:45.099Z,82.30
2018-02-16T01:38:16.729Z,82.60
2018-02-16T01:38:48.330Z,82.80
2018-02-16T01:39:19.964Z,83.00
2018-02-16T01:39:51.575Z,83.20
2018-02-16T01:40:23.203Z,82.00
2018-02-16T01:40:54.817Z,82.70
2018-02-16T01:41:26.455Z,82.70
2018-02-16T01:41:58.061Z,81.80
2018-02-16T01:42:29.737Z,81.40
2018-02-16T01:43:01.370Z,82.10
2018-02-16T01:43:32.993Z,81.80
2018-02-16T01:44:04.613Z,82.80
2018-02-16T01:44:36.229Z,81.80
2018-02-16T01:45:07.865Z,81.90
2018-02-16T01:45:39.478Z,82.50
2018-02-16T01:46:11.095Z,82.10
2018-02-16T01:46:42.735Z,82.10
2018-02-16T01:47:14.341Z,83.00
2018-02-16T01:47:45.957Z,83.00
2018-02-16T01:48:17.605Z,83.10
2018-02-16T01:48:49.219Z,83.40
2018-02-16T01:49:20.847Z,83.90
2018-02-16T01:50:04.643Z,83.40
2018-02-16T01:50:36.255Z,84.00
2018-02-16T01:51:07.891Z,84.30
2018-02-16T01:51:39.499Z,84.40
2018-02-16T01:52:11.101Z,84.00
2018-02-16T01:52:42.715Z,84.70
2018-02-16T01:53:14.337Z,85.10
2018-02-16T01:53:45.961Z,85.10
2018-02-16T01:54:17.582Z,84.40
2018-02-16T01:54:49.197Z,84.80
2018-02-16T01:55:20.821Z,85.10
2018-02-16T01:55:52.425Z,85.00
2018-02-16T01:56:24.036Z,84.90
2018-02-16T01:56:55.677Z,85.10
2018-02-16T01:57:27.305Z,85.50
2018-02-16T01:57:58.923Z,85.40
2018-02-16T01:58:30.521Z,85.00
2018-02-16T01:59:02.153Z,85.30
2018-02-16T01:59:33.773Z,85.20
2018-02-16T02:00:05.412Z,85.40
2018-02-16T02:00:37.041Z,85.60
2018-02-16T02:01:08.675Z,85.70
2018-02-16T02:01:40.297Z,86.00
2018-02-16T02:02:11.915Z,85.80
2018-02-16T02:02:43.541Z,85.60
2018-02-16T02:03:15.205Z,85.00
2018-02-16T02:03:46.820Z,85.30
2018-02-16T02:04:18.439Z,84.90
2018-02-16T02:04:50.091Z,83.70
2018-02-16T02:05:21.709Z,84.70
2018-02-16T02:05:53.339Z,84.10
2018-02-16T02:06:24.977Z,83.60
2018-02-16T02:06:56.597Z,82.90
2018-02-16T02:07:28.202Z,83.70
2018-02-16T02:07:59.825Z,82.00
2018-02-16T02:08:31.461Z,82.10
2018-02-16T02:09:03.147Z,82.00
2018-02-16T02:09:34.763Z,82.50
2018-02-16T02:10:06.380Z,81.60
2018-02-16T02:10:38.019Z,81.20
2018-02-16T02:11:09.637Z,81.40
2018-02-16T02:11:41.272Z,82.10
2018-02-16T02:12:12.897Z,82.30
2018-02-16T02:12:44.512Z,82.80
2018-02-16T02:13:16.163Z,81.80
2018-02-16T02:13:47.787Z,81.80
2018-02-16T02:14:19.419Z,82.00
2018-02-16T02:14:51.055Z,82.50
2018-02-16T02:15:22.676Z,81.70
2018-02-16T02:15:54.315Z,82.10
2018-02-16T02:16:25.922Z,82.00
2018-02-16T02:16:57.565Z,82.50
2018-02-16T02:17:29.175Z,82.50
2018-02-16T02:18:02.195Z,83.30
2018-02-16T02:18:33.815Z,83.40
2018-02-16T02:19:05.430Z,83.10
2018-02-16T02:19:37.067Z,83.70
2018-02-16T02:20:08.737Z,83.90
2018-02-16T02:20:40.349Z,83.90
2018-02-16T02:21:11.955Z,83.70
2018-02-16T02:21:43.593Z,84.20
2018-02-16T02:22:15.209Z,83.50
2018-02-16T02:22:46.827Z,84.00
2018-02-16T02:23:18.449Z,84.10
2018-02-16T02:23:50.065Z,84.10
2018-02-16T02:24:21.691Z,84.40
2018-02-16T02:24:53.323Z,83.20
2018-02-16T02:25:24.943Z,82.90
2018-02-16T02:25:56.553Z,83.40
2018-02-16T02:26:28.153Z,83.60
2018-02-16T02:26:59.831Z,83.40
2018-02-16T02:27:31.456Z,83.00
2018-02-16T02:28:03.103Z,83.40
2018-02-16T02:28:34.723Z,83.50
2018-02-16T02:29:06.342Z,83.80
2018-02-16T02:29:37.971Z,84.00
2018-02-16T02:30:09.597Z,82.80
2018-02-16T02:30:41.229Z,82.80
2018-02-16T02:31:12.841Z,83.20
2018-02-16T02:31:44.468Z,83.40
2018-02-16T02:32:16.090Z,83.80
2018-02-16T02:32:47.715Z,83.70
2018-02-16T02:33:19.325Z,83.40
2018-02-16T02:33:50.960Z,83.90
2018-02-16T02:34:22.571Z,84.10
2018-02-16T02:34:54.215Z,83.50
2018-02-16T02:35:25.827Z,83.80
2018-02-16T02:35:57.432Z,84.20
2018-02-16T02:36:29.035Z,84.30
2018-02-16T02:37:00.644Z,84.10
2018-02-16T02:37:32.269Z,83.90
2018-02-16T02:38:03.902Z,84.40
2018-02-16T02:38:35.531Z,84.60
2018-02-16T02:39:07.157Z,84.50
2018-02-16T02:39:38.769Z,84.80
2018-02-16T02:40:10.406Z,83.90
2018-02-16T02:40:42.024Z,84.10
2018-02-16T02:41:13.653Z,84.20
2018-02-16T02:41:45.260Z,84.10
2018-02-16T02:42:16.919Z,84.00
2018-02-16T02:42:48.541Z,84.30
2018-02-16T02:43:20.163Z,84.30
2018-02-16T02:43:51.808Z,84.40
2018-02-16T02:44:23.433Z,84.20
2018-02-16T02:44:55.064Z,84.30
2018-02-16T02:45:26.689Z,84.30
2018-02-16T02:45:58.314Z,84.50
2018-02-16T02:46:29.968Z,84.60
2018-02-16T02:47:01.595Z,84.60
2018-02-16T02:47:33.221Z,84.20
2018-02-16T02:48:04.843Z,84.60
2018-02-16T02:48:36.469Z,84.70
2018-02-16T02:49:08.091Z,84.70
2018-02-16T02:49:39.713Z,84.90
2018-02-16T02:50:11.387Z,85.10
2018-02-16T02:50:43.013Z,85.10
2018-02-16T02:51:14.635Z,84.80
2018-02-16T02:51:46.291Z,85.20
2018-02-16T02:52:17.927Z,85.30
2018-02-16T02:52:49.540Z,85.60
2018-02-16T02:53:21.165Z,85.70
2018-02-16T02:53:52.811Z,85.90
2018-02-16T02:54:24.433Z,86.00
2018-02-16T02:54:56.086Z,85.60
2018-02-16T02:55:27.705Z,85.90
2018-02-16T02:55:59.309Z,86.30
2018-02-16T02:56:30.944Z,86.20
2018-02-16T02:57:02.577Z,86.10
2018-02-16T02:57:34.183Z,86.50
2018-02-16T02:58:05.812Z,86.70
2018-02-16T02:58:37.437Z,86.70
2018-02-16T02:59:09.041Z,86.70
2018-02-16T02:59:40.659Z,86.80
2018-02-16T03:00:12.293Z,87.10
2018-02-16T03:00:43.922Z,87.10
2018-02-16T03:01:15.561Z,87.00
2018-02-16T03:01:47.172Z,87.00
2018-02-16T03:02:18.799Z,87.10
2018-02-16T03:02:50.411Z,87.00
2018-02-16T03:03:22.027Z,87.10
2018-02-16T03:03:53.669Z,87.10
2018-02-16T03:04:25.293Z,87.40
2018-02-16T03:04:56.905Z,87.30
2018-02-16T03:05:28.532Z,87.40
2018-02-16T03:06:00.187Z,87.30
2018-02-16T03:06:31.872Z,87.40
2018-02-16T03:07:03.500Z,87.60
2018-02-16T03:07:35.129Z,87.60
2018-02-16T03:08:06.743Z,87.70
2018-02-16T03:08:38.380Z,87.80
2018-02-16T03:09:10.013Z,87.70
2018-02-16T03:09:41.624Z,87.80
2018-02-16T03:10:13.233Z,87.70
2018-02-16T03:10:44.847Z,87.70
2018-02-16T03:11:16.457Z,87.90
2018-02-16T03:11:48.053Z,87.80
2018-02-16T03:12:19.671Z,88.00
2018-02-16T03:12:51.313Z,88.30
2018-02-16T03:13:22.937Z,88.40
2018-02-16T03:13:54.543Z,88.70
2018-02-16T03:14:26.153Z,88.50
2018-02-16T03:14:57.828Z,88.30
2018-02-16T03:15:29.493Z,88.30
2018-02-16T03:16:01.139Z,88.60
2018-02-16T03:16:32.787Z,88.60
2018-02-16T03:17:04.415Z,88.50
2018-02-16T03:17:36.051Z,88.30
2018-02-16T03:18:07.703Z,88.60
2018-02-16T03:18:39.315Z,88.60
2018-02-16T03:19:10.961Z,88.70
2018-02-16T03:19:42.610Z,88.60
2018-02-16T03:20:14.241Z,88.70
2018-02-16T03:20:45.849Z,88.40
2018-02-16T03:21:17.495Z,88.40
2018-02-16T03:21:49.125Z,88.70
2018-02-16T03:22:20.741Z,89.00
2018-02-16T03:22:52.337Z,89.00
2018-02-16T03:23:23.964Z,89.30
2018-02-16T03:23:55.594Z,89.50
2018-02-16T03:24:27.233Z,89.50
2018-02-16T03:24:58.874Z,89.40
2018-02-16T03:25:30.475Z,89.50
2018-02-16T03:26:02.100Z,89.50
2018-02-16T03:26:33.720Z,89.70
2018-02-16T03:27:05.364Z,89.50
2018-02-16T03:27:36.986Z,89.70
2018-02-16T03:28:08.605Z,89.90
2018-02-16T03:28:40.245Z,89.70
2018-02-16T03:29:11.853Z,89.80
2018-02-16T03:29:43.490Z,89.90
2018-02-16T03:30:15.129Z,90.00
2018-02-16T03:30:46.745Z,90.10
2018-02-16T03:31:18.368Z,90.30
2018-02-16T03:31:50.009Z,90.40
2018-02-16T03:32:21.605Z,90.40
2018-02-16T03:32:53.251Z,90.40
2018-02-16T03:33:24.899Z,90.30
2018-02-16T03:33:56.559Z,90.80
2018-02-16T03:34:28.189Z,91.00
2018-02-16T03:34:59.813Z,91.30
2018-02-16T03:35:31.439Z,91.50
2018-02-16T03:36:03.035Z,91.20
2018-02-16T03:36:34.743Z,91.20
2018-02-16T03:37:06.429Z,91.10
2018-02-16T03:37:38.039Z,91.10
2018-02-16T03:38:09.680Z,91.00
2018-02-16T03:38:41.299Z,90.70
2018-02-16T03:39:12.896Z,90.60
2018-02-16T03:39:44.529Z,90.60
2018-02-16T03:40:16.135Z,90.60
2018-02-16T03:40:47.785Z,90.90
2018-02-16T03:41:19.407Z,90.90
2018-02-16T03:41:51.043Z,90.80
2018-02-16T03:42:22.667Z,90.70
2018-02-16T03:42:54.273Z,90.70
2018-02-16T03:43:25.887Z,90.70
2018-02-16T03:43:57.507Z,90.80
2018-02-16T03:44:29.133Z,90.70
2018-02-16T03:45:00.749Z,90.80
2018-02-16T03:45:32.378Z,90.80
2018-02-16T03:46:04.049Z,90.60
2018-02-16T03:46:35.685Z,90.60
2018-02-16T03:47:07.301Z,90.70
2018-02-16T03:47:38.945Z,90.70
2018-02-16T03:48:10.561Z,90.50
2018-02-16T03:48:42.195Z,90.50
2018-02-16T03:49:13.821Z,90.30
2018-02-16T03:49:45.470Z,90.40
2018-02-16T03:50:17.109Z,90.40
2018-02-16T03:50:48.733Z,90.30
2018-02-16T03:51:20.377Z,90.00
2018-02-16T03:51:51.990Z,89.90
2018-02-16T03:52:23.596Z,89.80
2018-02-16T03:52:55.213Z,89.80
2018-02-16T03:53:26.829Z,89.80
2018-02-16T03:53:58.432Z,89.80
2018-02-16T03:54:30.053Z,89.70
2018-02-16T03:55:01.663Z,89.70
2018-02-16T03:55:33.287Z,89.60
2018-02-16T03:56:04.921Z,89.60
2018-02-16T03:56:36.533Z,89.60
2018-02-16T03:57:08.158Z,89.60
2018-02-16T03:57:39.763Z,89.60
2018-02-16T03:58:11.375Z,89.70
2018-02-16T03:58:43.015Z,89.60
2018-02-16T03:59:14.623Z,89.60
2018-02-16T03:59:46.235Z,89.60
2018-02-16T04:00:17.871Z,89.60
2018-02-16T04:00:49.479Z,89.60
2018-02-16T04:01:21.108Z,89.60
2018-02-16T04:01:52.727Z,89.70
2018-02-16T04:02:24.401Z,89.70
2018-02-16T04:02:56.027Z,89.70
2018-02-16T04:03:27.635Z,89.70
2018-02-16T04:03:59.271Z,89.80
2018-02-16T04:04:30.865Z,89.60
2018-02-16T04:05:02.523Z,89.70
2018-02-16T04:05:34.157Z,89.60
2018-02-16T04:06:05.760Z,89.70
2018-02-16T04:06:37.409Z,89.60
2018-02-16T04:07:09.025Z,89.60
2018-02-16T04:07:40.633Z,89.80
2018-02-16T04:08:12.257Z,89.70
2018-02-16T04:08:43.888Z,89.80
2018-02-16T04:09:15.509Z,89.70
2018-02-16T04:09:47.153Z,89.50
2018-02-16T04:10:18.772Z,89.60
2018-02-16T04:10:50.391Z,89.90
2018-02-16T04:11:22.025Z,89.80
2018-02-16T04:11:53.659Z,90.10
2018-02-16T04:12:25.271Z,90.10
2018-02-16T04:12:56.897Z,90.10
2018-02-16T04:13:28.537Z,90.00
2018-02-16T04:14:00.185Z,90.00
2018-02-16T04:14:31.795Z,89.70
2018-02-16T04:15:03.453Z,89.60
2018-02-16T04:15:35.097Z,89.60
2018-02-16T04:16:06.737Z,89.60
2018-02-16T04:16:38.351Z,89.40
2018-02-16T04:17:09.971Z,89.40
2018-02-16T04:17:41.577Z,89.30
2018-02-16T04:18:13.205Z,89.40
2018-02-16T04:18:44.856Z,89.50
2018-02-16T04:19:16.513Z,89.60
2018-02-16T04:19:48.119Z,89.70
2018-02-16T04:20:19.763Z,89.90
2018-02-16T04:20:51.413Z,90.00
2018-02-16T04:21:23.061Z,90.10
2018-02-16T04:21:54.695Z,90.00
2018-02-16T04:22:26.295Z,90.20
2018-02-16T04:22:57.896Z,90.20
2018-02-16T04:23:29.507Z,90.20
2018-02-16T04:24:01.119Z,90.10
2018-02-16T04:24:32.726Z,90.10
2018-02-16T04:25:04.347Z,90.00
2018-02-16T04:25:35.955Z,90.30
2018-02-16T04:26:07.551Z,90.50
2018-02-16T04:26:39.189Z,90.60
2018-02-16T04:27:10.817Z,90.60
2018-02-16T04:27:42.460Z,90.60
2018-02-16T04:28:14.065Z,90.50
2018-02-16T04:28:45.695Z,90.50
2018-02-16T04:29:17.317Z,90.60
2018-02-16T04:29:48.931Z,90.70
2018-02-16T04:30:20.538Z,90.60
2018-02-16T04:30:52.157Z,90.60
2018-02-16T04:31:23.765Z,90.50
2018-02-16T04:31:55.391Z,90.50
2018-02-16T04:32:26.993Z,90.60
2018-02-16T04:32:58.663Z,90.60
2018-02-16T04:33:30.290Z,90.70
2018-02-16T04:34:01.915Z,90.70
2018-02-16T04:34:33.535Z,90.60
2018-02-16T04:35:07.093Z,90.80
2018-02-16T04:35:38.715Z,90.90
2018-02-16T04:36:10.319Z,90.90
2018-02-16T04:36:41.945Z,90.90
2018-02-16T04:37:13.552Z,90.70
2018-02-16T04:37:45.169Z,90.70
2018-02-16T04:38:16.781Z,90.90
2018-02-16T04:38:48.408Z,91.00
2018-02-16T04:39:20.027Z,91.10
2018-02-16T04:39:51.643Z,91.10
2018-02-16T04:40:23.313Z,91.10
2018-02-16T04:40:54.913Z,91.00
2018-02-16T04:41:26.503Z,91.10
2018-02-16T04:41:58.135Z,91.00
2018-02-16T04:42:29.749Z,91.40
2018-02-16T04:43:01.389Z,91.50
2018-02-16T04:43:33.009Z,91.30
2018-02-16T04:44:04.624Z,91.60
2018-02-16T04:44:36.251Z,92.00
2018-02-16T04:45:07.851Z,91.90
2018-02-16T04:45:39.469Z,92.10
2018-02-16T04:46:11.100Z,92.10
2018-02-16T04:46:42.710Z,91.90
2018-02-16T04:47:14.323Z,91.90
2018-02-16T04:47:45.941Z,91.90
2018-02-16T04:48:17.577Z,92.10
2018-02-16T04:48:49.211Z,92.10
2018-02-16T04:49:20.853Z,92.60
2018-02-16T04:49:52.453Z,92.80
2018-02-16T04:50:24.087Z,92.80
2018-02-16T04:50:55.759Z,92.70
2018-02-16T04:51:27.381Z,92.60
2018-02-16T04:51:58.984Z,92.50
2018-02-16T04:52:30.603Z,92.60
2018-02-16T04:53:02.215Z,92.30
2018-02-16T04:53:33.846Z,92.70
2018-02-16T04:54:05.481Z,93.10
2018-02-16T04:54:37.106Z,93.10
2018-02-16T04:55:08.737Z,93.00
2018-02-16T04:55:40.357Z,93.20
2018-02-16T04:56:11.952Z,93.10
2018-02-16T04:56:43.573Z,93.20
2018-02-16T04:57:15.205Z,93.10
2018-02-16T04:57:46.816Z,93.30
2018-02-16T04:58:18.443Z,93.30
2018-02-16T04:58:50.071Z,93.40
2018-02-16T04:59:21.703Z,94.20
2018-02-16T04:59:53.319Z,94.10
2018-02-16T05:00:24.971Z,94.00
2018-02-16T05:00:56.645Z,93.90
2018-02-16T05:01:28.238Z,93.90
2018-02-16T05:01:59.863Z,93.90
2018-02-16T05:02:31.475Z,93.90
2018-02-16T05:03:03.117Z,93.70
2018-02-16T05:03:34.729Z,93.70
2018-02-16T05:04:06.341Z,93.60
2018-02-16T05:04:37.963Z,93.70
2018-02-16T05:05:09.578Z,93.60
2018-02-16T05:05:41.219Z,93.60
2018-02-16T05:06:12.848Z,93.60
2018-02-16T05:06:44.457Z,93.80
2018-02-16T05:07:16.087Z,93.90
2018-02-16T05:07:47.675Z,94.50
2018-02-16T05:08:19.309Z,94.60
2018-02-16T05:08:50.944Z,94.60
2018-02-16T05:09:22.577Z,94.40
2018-02-16T05:09:54.212Z,94.30
2018-02-16T05:10:25.837Z,94.60
2018-02-16T05:10:57.449Z,94.60
2018-02-16T05:11:29.057Z,94.80
2018-02-16T05:12:00.701Z,94.70
2018-02-16T05:12:32.325Z,94.50
2018-02-16T05:13:03.947Z,94.30
2018-02-16T05:13:35.571Z,94.20
2018-02-16T05:14:07.221Z,94.20
2018-02-16T05:14:38.839Z,94.20
2018-02-16T05:15:10.463Z,94.10
2018-02-16T05:15:42.061Z,94.20
2018-02-16T05:16:13.682Z,94.40
2018-02-16T05:16:45.295Z,94.30
2018-02-16T05:17:16.913Z,94.30
2018-02-16T05:17:48.508Z,94.30
2018-02-16T05:18:22.007Z,94.00
2018-02-16T05:18:53.632Z,93.90
2018-02-16T05:19:25.249Z,93.70
2018-02-16T05:19:56.888Z,93.50
2018-02-16T05:20:28.504Z,93.50
2018-02-16T05:21:00.133Z,93.40
2018-02-16T05:21:31.745Z,93.60
2018-02-16T05:22:03.345Z,93.70
2018-02-16T05:22:34.969Z,93.50
2018-02-16T05:23:06.609Z,93.30
2018-02-16T05:23:38.237Z,93.10
2018-02-16T05:24:09.874Z,92.70
2018-02-16T05:24:41.503Z,92.60
2018-02-16T05:25:13.117Z,92.40
2018-02-16T05:25:44.743Z,92.40
2018-02-16T05:26:16.389Z,92.20
2018-02-16T05:26:48.002Z,92.30
2018-02-16T05:27:19.619Z,91.90
2018-02-16T05:27:51.248Z,92.10
2018-02-16T05:28:22.865Z,92.00
2018-02-16T05:28:54.455Z,91.80
2018-02-16T05:29:26.079Z,91.70
2018-02-16T05:29:57.714Z,91.90
2018-02-16T05:30:29.327Z,91.70
2018-02-16T05:31:00.942Z,91.60
2018-02-16T05:31:32.577Z,91.60
2018-02-16T05:32:04.201Z,91.60
2018-02-16T05:32:35.859Z,91.60
2018-02-16T05:33:07.484Z,91.60
2018-02-16T05:33:39.105Z,91.60
2018-02-16T05:34:10.708Z,91.60
2018-02-16T05:34:42.345Z,91.70
2018-02-16T05:35:13.963Z,91.80
2018-02-16T05:35:45.596Z,91.70
2018-02-16T05:36:17.200Z,92.00
2018-02-16T05:36:48.805Z,92.50
2018-02-16T05:37:20.449Z,92.60
2018-02-16T05:37:52.083Z,92.60
2018-02-16T05:38:23.691Z,92.50
2018-02-16T05:38:55.302Z,93.00
2018-02-16T05:39:26.915Z,93.10
2018-02-16T05:39:58.537Z,92.90
2018-02-16T05:40:30.172Z,92.60
2018-02-16T05:41:01.803Z,92.40
2018-02-16T05:41:33.444Z,92.00
2018-02-16T05:42:05.077Z,91.80
2018-02-16T05:42:36.668Z,91.70
2018-02-16T05:43:08.285Z,91.60
2018-02-16T05:43:39.883Z,91.80
2018-02-16T05:44:11.483Z,91.90
2018-02-16T05:44:43.133Z,91.60
2018-02-16T05:45:14.751Z,91.20
2018-02-16T05:45:46.378Z,90.90
2018-02-16T05:46:17.996Z,90.60
2018-02-16T05:46:49.623Z,90.60
2018-02-16T05:47:21.220Z,90.70
2018-02-16T05:47:52.828Z,90.50
2018-02-16T05:48:24.473Z,90.40
2018-02-16T05:48:56.141Z,90.20
2018-02-16T05:49:27.749Z,89.80
2018-02-16T05:49:59.385Z,89.90
2018-02-16T05:50:31.008Z,90.00
2018-02-16T05:51:02.648Z,90.10
2018-02-16T05:51:34.257Z,90.00
2018-02-16T05:52:05.917Z,89.70
2018-02-16T05:52:37.545Z,89.30
2018-02-16T05:53:09.164Z,89.50
2018-02-16T05:53:40.801Z,89.50
2018-02-16T05:54:12.433Z,90.00
2018-02-16T05:54:44.071Z,89.90
2018-02-16T05:55:15.676Z,90.00
2018-02-16T05:55:47.331Z,89.80
2018-02-16T05:56:18.954Z,89.70
2018-02-16T05:56:50.556Z,89.70
2018-02-16T05:57:22.159Z,89.30
2018-02-16T05:57:53.779Z,89.00
2018-02-16T05:58:25.389Z,88.70
2018-02-16T05:58:56.997Z,88.50
2018-02-16T05:59:28.603Z,88.30
2018-02-16T06:00:00.219Z,88.40
2018-02-16T06:00:31.845Z,88.30
2018-02-16T06:01:03.455Z,88.30
2018-02-16T06:01:35.075Z,88.00
2018-02-16T06:02:06.701Z,87.90
2018-02-16T06:02:38.305Z,88.20
2018-02-16T06:03:09.930Z,88.20
2018-02-16T06:03:41.553Z,88.30
2018-02-16T06:04:13.175Z,88.30
2018-02-16T06:04:44.793Z,88.10
2018-02-16T06:05:16.423Z,88.30
2018-02-16T06:05:48.062Z,88.10
2018-02-16T06:06:19.663Z,88.00
2018-02-16T06:06:51.328Z,87.90
2018-02-16T06:07:22.938Z,88.00
2018-02-16T06:07:54.569Z,88.30
2018-02-16T06:08:26.181Z,88.60
2018-02-16T06:08:57.806Z,89.00
2018-02-16T06:09:29.417Z,88.90
2018-02-16T06:10:01.028Z,88.90
2018-02-16T06:10:32.665Z,88.80
2018-02-16T06:11:04.261Z,88.60
2018-02-16T06:11:35.885Z,88.80
2018-02-16T06:12:07.516Z,88.80
2018-02-16T06:12:39.121Z,88.70
2018-02-16T06:13:10.756Z,89.00
2018-02-16T06:13:42.357Z,88.90
2018-02-16T06:14:13.973Z,88.90
2018-02-16T06:14:45.605Z,88.80
2018-02-16T06:15:17.220Z,89.00
2018-02-16T06:15:48.825Z,89.10
2018-02-16T06:16:20.489Z,89.10
2018-02-16T06:16:52.105Z,89.30
2018-02-16T06:17:23.740Z,89.10
2018-02-16T06:17:55.377Z,89.30
2018-02-16T06:18:26.986Z,89.40
2018-02-16T06:18:58.601Z,89.40
2018-02-16T06:19:30.217Z,89.30
2018-02-16T06:20:01.844Z,89.30
2018-02-16T06:20:33.479Z,89.50
2018-02-16T06:21:05.112Z,89.60
2018-02-16T06:21:36.722Z,90.00
2018-02-16T06:22:08.340Z,90.20
2018-02-16T06:22:39.965Z,90.80
2018-02-16T06:23:11.595Z,90.40
2018-02-16T06:23:43.246Z,90.10
2018-02-16T06:24:14.854Z,89.80
2018-02-16T06:24:46.479Z,89.80
2018-02-16T06:25:18.113Z,89.80
2018-02-16T06:25:49.758Z,89.80
2018-02-16T06:26:21.397Z,89.70
2018-02-16T06:26:53.021Z,89.80
2018-02-16T06:27:24.643Z,89.60
2018-02-16T06:27:56.278Z,89.30
2018-02-16T06:28:27.899Z,89.30
2018-02-16T06:28:59.507Z,89.30
2018-02-16T06:29:31.126Z,89.30
2018-02-16T06:30:02.810Z,89.10
2018-02-16T06:30:34.420Z,89.20
2018-02-16T06:31:06.075Z,89.00
2018-02-16T06:31:37.693Z,88.80
2018-02-16T06:32:09.295Z,88.60
2018-02-16T06:32:40.913Z,88.90
2018-02-16T06:33:12.552Z,89.20
2018-02-16T06:33:44.173Z,89.40
2018-02-16T06:34:15.795Z,89.20
2018-02-16T06:34:47.407Z,88.90
2018-02-16T06:35:19.035Z,88.70
2018-02-16T06:35:50.633Z,88.60
2018-02-16T06:36:22.253Z,88.60
2018-02-16T06:36:53.875Z,88.60
2018-02-16T06:37:25.493Z,88.60
2018-02-16T06:37:57.112Z,88.90
2018-02-16T06:38:28.748Z,89.10
2018-02-16T06:39:00.360Z,89.00
2018-02-16T06:39:31.960Z,89.10
2018-02-16T06:40:03.603Z,89.70
2018-02-16T06:40:35.250Z,89.60
2018-02-16T06:41:06.861Z,89.70
2018-02-16T06:41:38.497Z,90.00
2018-02-16T06:42:10.101Z,89.70
2018-02-16T06:42:41.723Z,90.00
2018-02-16T06:43:13.355Z,89.90
2018-02-16T06:43:44.956Z,90.00
2018-02-16T06:44:16.592Z,90.40
2018-02-16T06:44:48.195Z,90.40
2018-02-16T06:45:19.981Z,90.60
2018-02-16T06:45:51.600Z,90.80
2018-02-16T06:46:23.234Z,90.80
2018-02-16T06:46:54.858Z,90.80
2018-02-16T06:47:26.475Z,90.90